Time;durP1;ratioP1;P1;durP2;ratioP2;P2;SDS_P1;SDS_P2;PMS_P1;PMS_P2;Temp;Humidity;BMP_temperature;BMP_pressure;BME280_temperature;BME280_humidity;BME280_pressure;Samples;Min_cycle;Max_cycle;Signal;HPM_P1;HPM_P2
2021/03/26 00:02:17;;;;;;;14.75;10.98;;;;;;;11.24;55.10;100624.91;10290789;28;20038;-59
2021/03/26 00:07:18;;;;;;;12.65;9.95;;;;;;;11.37;54.83;100637.31;10297310;28;20665;-59
2021/03/26 00:12:19;;;;;;;12.43;9.90;;;;;;;11.31;55.22;100619.97;10298563;28;20050;-60
2021/03/26 00:17:20;;;;;;;12.40;10.13;;;;;;;11.30;55.07;100624.47;10295989;28;20061;-60
2021/03/26 00:22:22;;;;;;;13.35;9.63;;;;;;;11.21;55.73;100619.81;10296337;28;20058;-58
2021/03/26 00:27:23;;;;;;;11.82;9.35;;;;;;;11.22;55.68;100624.19;10279979;28;20105;-59
2021/03/26 00:32:24;;;;;;;11.85;9.73;;;;;;;11.14;55.81;100614.13;10298039;28;20058;-61
2021/03/26 00:37:26;;;;;;;15.60;10.07;;;;;;;11.16;56.07;100624.69;10289870;28;20058;-59
2021/03/26 00:42:27;;;;;;;13.95;8.90;;;;;;;11.00;56.85;100627.66;10279893;28;20140;-59
2021/03/26 00:47:28;;;;;;;11.52;8.93;;;;;;;10.82;57.48;100629.91;10294147;28;20130;-58
2021/03/26 00:52:29;;;;;;;9.85;8.82;;;;;;;10.71;58.07;100619.22;10286172;28;20058;-60
2021/03/26 00:57:30;;;;;;;11.30;9.05;;;;;;;10.65;58.22;100617.03;10293840;28;20047;-61
2021/03/26 01:02:31;;;;;;;12.35;8.43;;;;;;;10.64;58.41;100615.31;10291668;28;20042;-60
2021/03/26 01:07:32;;;;;;;14.68;9.23;;;;;;;10.63;58.36;100618.94;10298774;28;20047;-59
2021/03/26 01:12:33;;;;;;;14.77;8.98;;;;;;;10.67;58.84;100626.59;10306194;28;20481;-60
2021/03/26 01:17:34;;;;;;;14.10;9.15;;;;;;;10.72;58.29;100619.13;10305340;28;20077;-59
2021/03/26 01:22:35;;;;;;;10.50;9.35;;;;;;;10.78;58.69;100623.97;10302260;28;20057;-61
2021/03/26 01:27:36;;;;;;;11.93;9.65;;;;;;;10.90;58.50;100626.66;10299769;28;20137;-59
2021/03/26 01:32:38;;;;;;;13.20;9.70;;;;;;;10.83;58.87;100631.63;10301885;28;20065;-60
2021/03/26 01:37:39;;;;;;;12.13;9.07;;;;;;;10.72;59.38;100628.91;10304303;28;20495;-60
2021/03/26 01:42:41;;;;;;;14.48;9.38;;;;;;;10.67;59.58;100623.09;10288139;28;20454;-59
2021/03/26 01:47:43;;;;;;;13.10;9.85;;;;;;;10.65;59.84;100630.34;10300682;28;20455;-59
2021/03/26 01:52:44;;;;;;;10.77;9.10;;;;;;;10.53;60.35;100624.13;10286911;28;20054;-59
2021/03/26 01:57:45;;;;;;;15.38;9.63;;;;;;;10.49;60.55;100619.97;10291652;28;20058;-60
2021/03/26 02:03:08;;;;;;;12.23;9.50;;;;;;;10.48;61.17;100620.94;10296837;28;20053;-59
2021/03/26 02:08:14;;;;;;;12.82;9.05;;;;;;;10.46;61.01;100613.06;10306811;28;20061;-60
2021/03/26 02:13:29;;;;;;;12.63;9.35;;;;;;;10.42;61.49;100620.44;10307443;28;20232;-58
2021/03/26 02:18:34;;;;;;;12.38;9.02;;;;;;;10.39;61.63;100614.50;10303633;28;22480;-59
2021/03/26 02:23:38;;;;;;;10.90;9.10;;;;;;;10.47;61.35;100620.09;10318170;28;20046;-61
2021/03/26 02:28:40;;;;;;;12.52;8.82;;;;;;;10.46;60.89;100614.88;10308639;28;20050;-60
2021/03/26 02:33:42;;;;;;;12.38;8.75;;;;;;;10.38;61.69;100613.63;10308049;28;20101;-58
2021/03/26 02:38:48;;;;;;;11.80;8.25;;;;;;;10.29;61.82;100614.28;10303979;28;20038;-58
2021/03/26 02:44:28;;;;;;;12.35;9.68;;;;;;;10.21;62.48;100619.34;10366137;22;20063;-66
2021/03/26 02:49:52;;;;;;;11.40;8.02;;;;;;;10.24;62.01;100614.63;10407593;28;20053;-65
2021/03/26 02:55:01;;;;;;;11.98;8.75;;;;;;;10.20;62.00;100615.81;10393992;28;20119;-64
2021/03/26 03:00:14;;;;;;;10.77;8.20;;;;;;;10.26;61.80;100611.84;10387203;28;20072;-65
2021/03/26 03:05:32;;;;;;;11.45;9.18;;;;;;;10.19;62.47;100615.91;10391449;28;23776;-64
2021/03/26 03:11:07;;;;;;;9.40;7.65;;;;;;;10.26;61.91;100618.00;10399551;28;20049;-65
2021/03/26 03:16:21;;;;;;;;;;;;;;;10.29;61.90;100621.44;10402973;28;20053;-66
2021/03/26 03:21:33;;;;;;;10.95;8.05;;;;;;;10.11;62.24;100619.16;10389289;28;19921;-64
2021/03/26 03:26:46;;;;;;;9.57;7.70;;;;;;;10.19;61.92;100615.91;10400202;28;20585;-65
2021/03/26 03:31:47;;;;;;;9.80;8.05;;;;;;;10.07;62.32;100607.88;10399973;28;20048;-66
2021/03/26 03:36:58;;;;;;;11.70;8.40;;;;;;;9.94;62.50;100600.88;10397044;28;20107;-66
2021/03/26 03:42:08;;;;;;;12.32;7.80;;;;;;;10.02;62.15;100599.38;10403932;28;20044;-65
2021/03/26 03:47:29;;;;;;;12.98;8.68;;;;;;;10.05;61.79;100604.47;10414205;28;20052;-65
2021/03/26 03:52:44;;;;;;;13.02;9.05;;;;;;;9.92;62.38;100590.38;10399422;28;20129;-66
2021/03/26 03:57:53;;;;;;;10.27;7.88;;;;;;;10.04;61.77;100592.16;10409985;28;20114;-65
2021/03/26 04:03:09;;;;;;;11.18;7.85;;;;;;;10.17;61.88;100605.38;10409077;28;20115;-65
2021/03/26 04:08:46;;;;;;;9.60;7.32;;;;;;;10.10;61.95;100609.47;10403255;28;20051;-65
2021/03/26 04:14:00;;;;;;;14.88;8.98;;;;;;;10.01;62.23;100599.50;10384674;28;20049;-63
2021/03/26 04:19:10;;;;;;;10.10;8.48;;;;;;;10.03;62.17;100605.56;10406674;28;20045;-70
2021/03/26 04:24:20;;;;;;;10.75;8.98;;;;;;;9.96;62.54;100609.63;10398736;28;20087;-67
2021/03/26 04:29:35;;;;;;;10.02;8.82;;;;;;;9.93;62.74;100609.84;10409851;28;20081;-65
2021/03/26 04:34:54;;;;;;;10.20;9.18;;;;;;;9.93;62.45;100607.19;10411399;28;20049;-64
2021/03/26 04:39:59;;;;;;;13.00;8.80;;;;;;;9.99;62.16;100606.75;10407563;28;20057;-64
2021/03/26 04:45:23;;;;;;;10.40;8.95;;;;;;;9.86;62.45;100604.97;10409988;28;20049;-65
2021/03/26 04:50:38;;;;;;;11.63;8.95;;;;;;;10.03;62.00;100605.56;10410200;28;20134;-64
2021/03/26 04:55:48;;;;;;;12.27;9.07;;;;;;;10.08;62.13;100603.41;10421504;28;20823;-65
2021/03/26 05:00:53;;;;;;;11.63;9.85;;;;;;;9.87;62.47;100595.19;10409874;28;20048;-65
2021/03/26 05:05:59;;;;;;;12.45;10.07;;;;;;;10.02;61.93;100609.19;10397705;28;20407;-64
2021/03/26 05:11:04;;;;;;;15.77;11.30;;;;;;;10.01;62.00;100599.50;10406937;28;21619;-65
2021/03/26 05:16:10;;;;;;;15.90;10.77;;;;;;;9.94;62.22;100600.88;10397046;28;20064;-64
2021/03/26 05:21:21;;;;;;;16.48;11.90;;;;;;;9.85;62.43;100603.28;10403059;28;20079;-66
2021/03/26 05:26:22;;;;;;;15.32;10.98;;;;;;;9.82;62.26;100608.81;10396530;28;20138;-66
2021/03/26 05:31:50;;;;;;;16.02;10.55;;;;;;;9.93;62.06;100612.50;10396482;28;20089;-65
2021/03/26 05:37:20;;;;;;;15.77;12.27;;;;;;;9.96;62.42;100615.78;10393816;28;20045;-65
2021/03/26 05:42:46;;;;;;;16.67;12.05;;;;;;;10.00;61.87;100616.44;10393850;28;20045;-65
2021/03/26 05:48:07;;;;;;;15.20;11.82;;;;;;;10.00;62.30;100630.56;10397435;28;20049;-65
2021/03/26 05:53:30;;;;;;;17.08;12.07;;;;;;;10.08;62.08;100627.34;10404096;28;20497;-65
2021/03/26 05:58:37;;;;;;;16.73;12.70;;;;;;;10.10;61.78;100625.41;10401113;28;20076;-66
2021/03/26 06:03:59;;;;;;;14.68;12.57;;;;;;;10.14;61.69;100616.25;10393336;28;20072;-64
2021/03/26 06:09:30;;;;;;;18.23;13.35;;;;;;;10.28;61.56;100620.56;10403583;28;20047;-64
2021/03/26 06:14:49;;;;;;;18.92;13.05;;;;;;;10.40;61.27;100621.50;10395389;28;20401;-64
2021/03/26 06:20:05;;;;;;;16.50;13.13;;;;;;;10.49;60.57;100612.00;10401436;28;20531;-65
2021/03/26 06:25:29;;;;;;;17.63;13.93;;;;;;;10.79;60.38;100625.69;10402835;28;20128;-64
2021/03/26 06:30:48;;;;;;;18.05;14.88;;;;;;;10.64;60.62;100628.63;10395945;28;20052;-65
2021/03/26 06:36:37;;;;;;;19.50;14.73;;;;;;;10.62;60.30;100634.06;10407077;28;20143;-64
2021/03/26 06:42:06;;;;;;;17.98;14.43;;;;;;;10.58;60.65;100628.16;10419641;28;20111;-64
2021/03/26 06:47:26;;;;;;;17.48;13.52;;;;;;;10.75;60.03;100624.22;10399913;28;20251;-65
2021/03/26 06:52:43;;;;;;;19.08;14.60;;;;;;;10.74;60.13;100621.66;10400703;28;20049;-64
2021/03/26 06:57:58;;;;;;;16.80;13.95;;;;;;;10.81;60.10;100611.38;10400623;28;20059;-66
2021/03/26 07:03:21;;;;;;;18.70;15.00;;;;;;;11.11;58.97;100613.53;10398761;28;20061;-66
2021/03/26 07:08:57;;;;;;;18.75;13.10;;;;;;;11.51;58.51;100610.41;10398770;28;20128;-65
2021/03/26 07:14:16;;;;;;;17.58;14.20;;;;;;;11.53;57.92;100608.50;10392012;28;20099;-65
2021/03/26 07:19:36;;;;;;;24.05;15.15;;;;;;;11.72;57.47;100609.69;10394047;28;20127;-65
2021/03/26 07:25:13;;;;;;;17.92;13.93;;;;;;;11.74;57.45;100605.06;10396616;28;20061;-65
2021/03/26 07:30:24;;;;;;;19.80;13.65;;;;;;;11.70;57.57;100611.63;10393794;28;20115;-64
2021/03/26 07:35:46;;;;;;;18.60;14.05;;;;;;;11.92;57.22;100608.94;10393432;28;20116;-65
2021/03/26 07:41:07;;;;;;;19.50;13.70;;;;;;;12.18;56.35;100609.53;10410983;28;20061;-64
2021/03/26 07:46:40;;;;;;;20.60;13.25;;;;;;;12.38;55.85;100610.56;10413297;28;20132;-64
2021/03/26 07:51:53;;;;;;;17.10;13.20;;;;;;;12.76;54.85;100613.69;10405542;28;20053;-64
2021/03/26 07:57:09;;;;;;;15.93;13.65;;;;;;;13.07;53.96;100611.91;10407824;28;20438;-64
2021/03/26 08:02:36;;;;;;;16.90;14.00;;;;;;;13.05;53.74;100605.88;10398560;28;20504;-65
2021/03/26 08:08:17;;;;;;;19.00;13.80;;;;;;;13.21;53.64;100607.22;10396800;28;20119;-64
2021/03/26 08:13:33;;;;;;;15.90;13.90;;;;;;;13.17;53.67;100595.13;10397297;28;20132;-66
2021/03/26 08:18:56;;;;;;;17.17;14.45;;;;;;;13.29;53.65;100603.91;10396001;28;20053;-68
2021/03/26 08:24:34;;;;;;;17.45;14.45;;;;;;;13.44;53.11;100608.78;10399133;28;20481;-65
2021/03/26 08:30:01;;;;;;;17.88;13.75;;;;;;;13.60;52.59;100596.75;10386380;28;20510;-66
2021/03/26 08:35:24;;;;;;;18.60;14.30;;;;;;;14.00;51.54;100595.88;10374311;28;20056;-65
2021/03/26 08:40:38;;;;;;;19.45;14.73;;;;;;;14.59;50.42;100610.22;10399237;28;20122;-66
2021/03/26 08:45:46;;;;;;;15.85;13.85;;;;;;;15.02;49.15;100592.00;10400257;28;20120;-64
2021/03/26 08:51:06;;;;;;;18.45;16.10;;;;;;;14.72;49.48;100609.94;10398546;28;20045;-64
2021/03/26 08:56:34;;;;;;;17.45;15.45;;;;;;;14.56;49.98;100610.50;10412059;28;20069;-65
2021/03/26 09:01:40;;;;;;;20.15;15.30;;;;;;;14.51;50.21;100612.72;10397409;28;20049;-63
2021/03/26 09:06:49;;;;;;;18.23;15.35;;;;;;;14.76;49.37;100600.63;10396137;28;20042;-64
2021/03/26 09:12:08;;;;;;;18.17;16.17;;;;;;;14.78;49.34;100609.38;10402794;28;20111;-64
2021/03/26 09:17:25;;;;;;;16.98;13.40;;;;;;;15.55;51.75;100607.50;10395045;28;20052;-64
2021/03/26 09:22:57;;;;;;;19.40;16.75;;;;;;;16.21;45.62;100594.91;10396956;28;20046;-64
2021/03/26 09:28:04;;;;;;;16.95;14.23;;;;;;;16.60;46.56;100601.78;10399111;28;20079;-63
2021/03/26 09:33:05;;;;;;;17.08;14.65;;;;;;;17.37;43.64;100588.63;10404663;28;20595;-64
2021/03/26 09:38:24;;;;;;;18.15;14.23;;;;;;;17.77;41.02;100572.81;10410936;28;20129;-64
2021/03/26 09:43:32;;;;;;;17.30;14.73;;;;;;;17.45;41.92;100569.81;10403262;28;20123;-63
2021/03/26 09:48:48;;;;;;;18.33;15.15;;;;;;;17.67;41.20;100563.00;10389597;28;20049;-62
2021/03/26 09:53:51;;;;;;;14.40;13.00;;;;;;;17.84;40.38;100563.91;10404319;28;20446;-64
2021/03/26 09:59:04;;;;;;;15.67;14.03;;;;;;;18.53;38.98;100562.88;10400873;28;20041;-64
2021/03/26 10:04:25;;;;;;;13.85;12.38;;;;;;;17.94;39.51;100555.72;10405103;28;20129;-64
2021/03/26 10:14:56;;;;;;;13.93;12.55;;;;;;;17.75;40.25;100542.53;10410422;28;20396;-64
2021/03/26 10:20:11;;;;;;;14.80;12.38;;;;;;;22.18;31.50;100532.91;10443427;28;20036;-65
2021/03/26 10:25:22;;;;;;;12.70;10.77;;;;;;;25.04;27.09;100522.69;10437249;28;20348;-64
2021/03/26 10:30:30;;;;;;;12.45;11.15;;;;;;;25.61;25.08;100506.59;10407084;28;20430;-63
2021/03/26 10:35:59;;;;;;;12.13;10.98;;;;;;;23.28;28.30;100492.69;10420596;28;20045;-64
2021/03/26 10:41:12;;;;;;;12.18;9.80;;;;;;;22.97;28.63;100465.13;10406921;28;20124;-65
2021/03/26 10:46:22;;;;;;;11.82;9.93;;;;;;;24.62;27.13;100490.31;10407789;28;20086;-64
2021/03/26 10:51:47;;;;;;;10.80;8.80;;;;;;;27.86;22.51;100468.44;10400081;28;20498;-65
2021/03/26 10:56:56;;;;;;;9.20;7.35;;;;;;;29.17;20.03;100463.91;10389510;28;20267;-64
2021/03/26 11:02:21;;;;;;;8.90;7.18;;;;;;;29.85;18.51;100446.91;10400627;28;20076;-63
2021/03/26 11:07:30;;;;;;;6.15;5.55;;;;;;;31.19;17.54;100455.28;10405885;28;20411;-64
2021/03/26 11:12:46;;;;;;;5.65;5.07;;;;;;;33.20;15.13;100422.00;10393242;28;20057;-65
2021/03/26 11:18:00;;;;;;;7.97;7.15;;;;;;;28.49;18.79;100422.38;10395164;28;20053;-64
2021/03/26 11:23:13;;;;;;;9.43;8.40;;;;;;;30.60;17.25;100420.97;10396764;28;20051;-64
2021/03/26 11:28:27;;;;;;;8.15;7.20;;;;;;;32.23;15.29;100409.31;10398484;28;20124;-64
2021/03/26 11:33:34;;;;;;;8.98;7.10;;;;;;;29.40;18.38;100401.91;10393160;28;20041;-63
2021/03/26 11:38:39;;;;;;;8.00;7.20;;;;;;;31.01;17.07;100399.53;10405679;28;20049;-63
2021/03/26 11:43:42;;;;;;;9.77;7.88;;;;;;;29.70;18.29;100387.09;10409951;28;20876;-65
2021/03/26 11:48:51;;;;;;;7.80;7.00;;;;;;;33.68;14.63;100377.69;10407200;28;20044;-65
2021/03/26 11:54:25;;;;;;;6.95;6.25;;;;;;;37.15;11.98;100360.28;10392245;28;20581;-64
2021/03/26 11:59:41;;;;;;;6.50;5.20;;;;;;;37.70;10.91;100360.88;10394462;28;20049;-64
2021/03/26 12:04:48;;;;;;;7.22;5.53;;;;;;;37.60;10.96;100328.56;10381807;28;20147;-64
2021/03/26 12:09:58;;;;;;;7.30;5.22;;;;;;;36.63;11.19;100349.03;10391871;28;20126;-65
2021/03/26 12:15:07;;;;;;;6.25;4.90;;;;;;;37.77;10.43;100331.59;10376892;28;20048;-65
2021/03/26 12:20:29;;;;;;;6.00;5.40;;;;;;;37.47;10.51;100339.31;10371503;28;21150;-67
2021/03/26 12:25:40;;;;;;;6.97;5.63;;;;;;;37.97;11.04;100316.53;10376155;28;20529;-67
2021/03/26 12:30:50;;;;;;;7.63;6.82;;;;;;;33.75;14.18;100317.56;10374049;28;20430;-66
2021/03/26 12:36:01;;;;;;;7.63;6.22;;;;;;;32.67;14.53;100319.22;10393295;28;20053;-65
2021/03/26 12:41:41;;;;;;;7.47;6.78;;;;;;;32.88;14.64;100309.94;10371714;28;24983;-64
2021/03/26 12:47:10;;;;;;;8.03;6.07;;;;;;;29.22;18.17;100296.84;10358965;28;20601;-64
2021/03/26 12:52:27;;;;;;;6.22;5.63;;;;;;;34.93;12.99;100302.59;10372078;28;20111;-64
2021/03/26 12:58:06;;;;;;;7.82;6.45;;;;;;;28.55;18.02;100284.56;10368893;28;20071;-64
2021/03/26 13:03:26;;;;;;;7.50;5.07;;;;;;;33.67;13.92;100281.38;10380110;28;20344;-64
2021/03/26 13:08:31;;;;;;;7.63;6.72;;;;;;;35.58;11.81;100269.22;10382637;28;20128;-66
2021/03/26 13:13:53;;;;;;;6.13;5.35;;;;;;;32.97;14.26;100274.41;10381629;28;20183;-65
2021/03/26 13:18:57;;;;;;;6.28;5.78;;;;;;;30.93;15.90;100264.50;10382504;28;20424;-63
2021/03/26 13:24:26;;;;;;;6.18;5.60;;;;;;;30.85;15.91;100260.28;10379290;28;20069;-63
2021/03/26 13:29:30;;;;;;;7.68;6.28;;;;;;;32.39;14.79;100253.25;10379817;28;20136;-64
2021/03/26 13:34:38;;;;;;;8.10;6.28;;;;;;;29.96;16.98;100243.75;10378584;28;20142;-63
2021/03/26 13:39:46;;;;;;;6.57;5.50;;;;;;;26.10;20.68;100240.53;10380258;28;20191;-63
2021/03/26 13:45:00;;;;;;;6.82;5.70;;;;;;;24.72;22.27;100230.50;10379049;28;20052;-64
2021/03/26 13:50:14;;;;;;;6.82;5.80;;;;;;;24.97;22.57;100225.94;10377041;28;20057;-66
2021/03/26 13:55:30;;;;;;;7.15;5.60;;;;;;;23.57;23.46;100205.47;10377733;28;20115;-63
2021/03/26 14:00:32;;;;;;;7.55;5.72;;;;;;;23.47;23.59;100197.72;10374549;28;20900;-65
2021/03/26 14:05:46;;;;;;;7.70;6.30;;;;;;;23.14;23.97;100214.03;10377741;28;22299;-62
2021/03/26 14:10:57;;;;;;;8.32;5.90;;;;;;;22.60;25.09;100192.16;10378537;28;20045;-63
2021/03/26 14:16:08;;;;;;;7.38;6.07;;;;;;;21.90;25.54;100167.00;10379877;28;20142;-65
2021/03/26 14:21:22;;;;;;;8.65;6.05;;;;;;;21.71;25.97;100180.25;10382190;28;20292;-63
2021/03/26 14:26:29;;;;;;;;;;;;;;;21.83;26.36;100172.41;10377829;28;20041;-64
2021/03/26 14:31:42;;;;;;;9.13;6.30;;;;;;;21.72;26.47;100164.81;10373168;28;19967;-62
2021/03/26 14:36:56;;;;;;;7.20;6.50;;;;;;;21.26;27.06;100160.72;10375352;28;20416;-62
2021/03/26 14:42:03;;;;;;;7.97;5.93;;;;;;;20.88;26.97;100157.47;10375886;28;20083;-62
2021/03/26 14:47:13;;;;;;;6.75;5.72;;;;;;;20.24;27.95;100142.81;10370475;22;20516;-72
2021/03/26 14:52:20;;;;;;;7.82;5.38;;;;;;;19.81;29.12;100131.88;10355770;28;20517;-72
2021/03/26 14:57:30;;;;;;;7.32;6.28;;;;;;;19.60;29.26;100130.72;10357716;28;20052;-72
2021/03/26 15:02:44;;;;;;;7.95;5.82;;;;;;;19.55;28.97;100116.97;10342612;28;20053;-72
2021/03/26 15:07:50;;;;;;;8.70;6.22;;;;;;;19.54;29.36;100112.56;10347382;28;20162;-72
2021/03/26 15:13:20;;;;;;;7.27;6.57;;;;;;;19.34;30.21;100109.59;10334324;28;20519;-72
2021/03/26 15:18:42;;;;;;;7.22;6.10;;;;;;;19.19;30.63;100109.56;10349308;28;20124;-72
2021/03/26 15:23:55;;;;;;;9.15;6.78;;;;;;;19.30;30.33;100094.78;10332157;28;20042;-70
2021/03/26 15:29:04;;;;;;;8.97;5.87;;;;;;;19.02;30.43;100088.13;10346259;28;20076;-71
2021/03/26 15:34:14;;;;;;;8.63;6.55;;;;;;;19.20;30.86;100089.63;10332661;28;20351;-72
2021/03/26 15:39:31;;;;;;;6.10;5.00;;;;;;;19.17;31.14;100085.47;10328364;28;20050;-70
2021/03/26 15:44:50;;;;;;;6.60;6.00;;;;;;;19.05;30.66;100079.69;10344719;28;20459;-71
2021/03/26 15:50:04;;;;;;;7.70;6.00;;;;;;;19.13;30.69;100073.38;10352183;28;20056;-73
2021/03/26 15:55:24;;;;;;;6.05;5.38;;;;;;;18.96;30.93;100067.28;10329540;28;20116;-73
2021/03/26 16:00:50;;;;;;;8.32;5.90;;;;;;;18.86;31.28;100069.41;10333963;28;20053;-72
2021/03/26 16:06:29;;;;;;;8.85;5.70;;;;;;;18.40;32.03;100062.13;10351485;28;20053;-73
2021/03/26 16:11:42;;;;;;;7.30;5.38;;;;;;;17.93;32.24;100061.25;10349169;28;20508;-72
2021/03/26 16:17:11;;;;;;;8.38;6.15;;;;;;;17.89;32.59;100043.75;10349499;28;20061;-72
2021/03/26 16:22:32;;;;;;;7.55;6.40;;;;;;;17.84;32.76;100040.75;10348864;28;20037;-73
2021/03/26 16:27:45;;;;;;;6.60;6.00;;;;;;;17.76;33.96;100054.22;10337068;28;20163;-71
2021/03/26 16:33:10;;;;;;;7.28;5.88;;;;;;;17.78;33.08;100049.53;10326324;28;20037;-73
2021/03/26 16:38:35;;;;;;;8.07;5.57;;;;;;;17.57;33.08;100042.03;10355035;28;20045;-72
2021/03/26 16:43:48;;;;;;;9.10;5.63;;;;;;;17.51;33.54;100045.44;10360070;28;20500;-72
2021/03/26 16:49:27;;;;;;;5.70;5.00;;;;;;;17.34;33.79;100058.06;10344434;28;20480;-74
2021/03/26 16:54:46;;;;;;;7.20;6.53;;;;;;;17.10;34.34;100043.69;10346059;28;20069;-74
2021/03/26 17:00:07;;;;;;;9.73;7.90;;;;;;;17.00;34.80;100040.34;10348715;28;20187;-72
2021/03/26 17:05:49;;;;;;;8.02;5.65;;;;;;;16.94;34.98;100042.69;10353419;28;20116;-71
2021/03/26 17:11:43;;;;;;;8.45;6.13;;;;;;;16.98;34.85;100039.66;10348149;28;20127;-72
2021/03/26 17:17:09;;;;;;;9.80;6.57;;;;;;;16.87;34.73;100036.31;10347565;28;20045;-72
2021/03/26 17:22:34;;;;;;;9.88;6.30;;;;;;;16.68;34.96;100032.13;10352554;28;20072;-73
2021/03/26 17:28:09;;;;;;;8.15;6.00;;;;;;;16.63;34.93;100028.25;10350428;28;20136;-75
2021/03/26 17:33:19;;;;;;;;;;;;;;;16.63;35.35;100044.38;10347400;28;20069;-73
2021/03/26 17:38:36;;;;;;;6.78;5.72;;;;;;;16.59;35.31;100042.03;10352928;28;19922;-73
2021/03/26 17:44:19;;;;;;;8.63;5.53;;;;;;;16.53;35.31;100040.00;10337354;28;20135;-73
2021/03/26 17:49:41;;;;;;;9.48;5.40;;;;;;;16.45;35.38;100050.75;10349220;28;20058;-74
2021/03/26 17:55:15;;;;;;;7.00;5.28;;;;;;;16.33;35.63;100049.38;10349631;28;20135;-71
2021/03/26 18:00:43;;;;;;;7.53;5.47;;;;;;;16.23;36.15;100053.06;10327738;28;20520;-72
2021/03/26 18:06:33;;;;;;;6.18;5.00;;;;;;;16.34;36.07;100049.22;10341874;28;20092;-73
2021/03/26 18:11:42;;;;;;;7.70;5.53;;;;;;;16.33;35.94;100041.34;10292712;28;20137;-71
2021/03/26 18:16:46;;;;;;;10.25;5.75;;;;;;;16.29;36.62;100048.03;10330420;28;20141;-71
2021/03/26 18:22:02;;;;;;;7.68;6.00;;;;;;;16.23;36.45;100050.38;10344555;28;20184;-73
2021/03/26 18:27:15;;;;;;;7.47;5.38;;;;;;;16.04;37.04;100042.63;10336070;28;20129;-72
2021/03/26 18:32:25;;;;;;;7.50;6.03;;;;;;;16.06;37.38;100051.34;10335616;28;20846;-73
2021/03/26 18:38:05;;;;;;;9.45;6.70;;;;;;;16.01;37.85;100048.31;10349458;28;20408;-73
2021/03/26 18:43:35;;;;;;;9.95;6.75;;;;;;;16.01;37.67;100056.38;10352838;28;20144;-72
2021/03/26 18:48:42;;;;;;;9.45;6.15;;;;;;;16.04;37.80;100056.06;10352142;28;20058;-73
2021/03/26 18:54:01;;;;;;;7.45;5.82;;;;;;;16.05;38.44;100057.75;10359407;28;20056;-71
2021/03/26 18:59:26;;;;;;;7.78;5.50;;;;;;;16.02;38.06;100060.75;10349469;28;20053;-74
2021/03/26 19:04:52;;;;;;;8.15;5.47;;;;;;;16.02;38.31;100056.22;10353788;28;20050;-73
2021/03/26 19:10:05;;;;;;;8.85;6.28;;;;;;;15.89;38.52;100070.09;10356933;28;20416;-74
2021/03/26 19:15:43;;;;;;;9.38;6.22;;;;;;;15.94;38.75;100063.41;10355963;28;20054;-71
2021/03/26 19:21:08;;;;;;;8.73;5.70;;;;;;;15.82;38.88;100066.41;10347026;28;20088;-74
2021/03/26 19:26:18;;;;;;;9.02;6.20;;;;;;;15.64;39.18;100060.25;10335253;28;20075;-72
2021/03/26 19:31:48;;;;;;;11.00;6.13;;;;;;;15.52;39.68;100062.34;10357772;28;20053;-73
2021/03/26 19:37:04;;;;;;;9.80;5.45;;;;;;;15.50;40.65;100050.97;10308081;28;20061;-73
2021/03/26 19:42:24;;;;;;;7.53;5.80;;;;;;;15.54;40.73;100053.16;10355407;28;20099;-74
2021/03/26 19:47:40;;;;;;;7.70;6.03;;;;;;;15.50;40.01;100040.22;10356779;28;20054;-76
2021/03/26 19:53:20;;;;;;;10.80;5.88;;;;;;;15.59;40.19;100051.84;10358647;28;20048;-76
2021/03/26 19:58:30;;;;;;;6.13;5.43;;;;;;;15.73;40.11;100051.22;10334330;28;20530;-74
2021/03/26 20:04:08;;;;;;;9.85;6.68;;;;;;;15.63;40.29;100053.22;10355955;28;20535;-72
2021/03/26 20:09:37;;;;;;;8.15;6.10;;;;;;;15.44;40.78;100041.72;10351460;28;20045;-73
2021/03/26 20:14:47;;;;;;;6.80;5.72;;;;;;;15.33;41.11;100045.50;10355752;28;20041;-75
2021/03/26 20:20:03;;;;;;;9.68;6.18;;;;;;;15.22;41.45;100042.25;10351838;28;20184;-73
2021/03/26 20:25:17;;;;;;;6.68;6.00;;;;;;;15.09;41.90;100038.19;10356735;28;20164;-73
2021/03/26 20:30:52;;;;;;;6.57;5.85;;;;;;;15.00;42.37;100039.13;10351335;28;20483;-72
2021/03/26 20:36:00;;;;;;;8.55;6.10;;;;;;;14.98;42.58;100041.09;10353381;28;20560;-73
2021/03/26 20:41:37;;;;;;;6.95;6.15;;;;;;;14.94;42.53;100039.75;10334286;28;20054;-75
2021/03/26 20:47:00;;;;;;;7.85;5.82;;;;;;;14.88;42.62;100035.00;10318993;28;20118;-73
2021/03/26 20:52:21;;;;;;;7.00;5.53;;;;;;;14.77;43.07;100031.59;10336962;28;20489;-71
2021/03/26 20:57:46;;;;;;;7.32;6.60;;;;;;;14.75;43.46;100033.56;10326199;28;20397;-73
2021/03/26 21:02:49;;;;;;;7.83;6.97;;;;;;;14.70;43.59;100035.91;10334565;28;20178;-74
2021/03/26 21:08:08;;;;;;;9.38;6.43;;;;;;;14.72;43.42;100033.06;10351850;28;20779;-73
2021/03/26 21:13:15;;;;;;;10.55;7.05;;;;;;;14.71;43.59;100037.56;10335824;28;20456;-74
2021/03/26 21:18:42;;;;;;;8.65;6.63;;;;;;;14.70;43.78;100027.88;10328818;28;20432;-72
2021/03/26 21:23:53;;;;;;;9.68;7.05;;;;;;;14.62;44.11;100046.53;10356284;28;20170;-72
2021/03/26 21:28:54;;;;;;;11.38;6.90;;;;;;;14.47;44.32;100039.03;10341022;28;20053;-71
2021/03/26 21:34:04;;;;;;;8.75;6.05;;;;;;;14.46;44.70;100048.06;10344913;28;20140;-71
2021/03/26 21:39:22;;;;;;;9.27;6.57;;;;;;;14.44;44.79;100044.69;10354925;28;20542;-74
2021/03/26 21:44:53;;;;;;;6.82;5.95;;;;;;;14.40;44.64;100037.97;10347241;28;20105;-73
2021/03/26 21:50:10;;;;;;;7.15;5.63;;;;;;;14.40;45.07;100048.66;10356882;28;20289;-72
2021/03/26 21:55:30;;;;;;;11.10;6.43;;;;;;;14.38;45.08;100034.59;10336874;28;20057;-75
2021/03/26 22:00:54;;;;;;;6.97;5.45;;;;;;;14.40;45.22;100024.56;10356771;28;20226;-72
2021/03/26 22:06:07;;;;;;;6.95;5.53;;;;;;;14.40;45.22;100021.88;10353913;28;20085;-73
2021/03/26 22:11:21;;;;;;;7.07;5.60;;;;;;;14.41;45.13;100018.22;10339867;28;20441;-71
2021/03/26 22:16:37;;;;;;;6.63;5.05;;;;;;;14.30;45.68;100018.44;10359802;28;20436;-73
2021/03/26 22:21:41;;;;;;;5.43;4.85;;;;;;;14.23;45.96;100012.03;10362547;28;20045;-75
2021/03/26 22:26:42;;;;;;;5.78;5.18;;;;;;;14.22;45.89;100013.03;10357612;28;20575;-73
2021/03/26 22:31:50;;;;;;;6.10;5.25;;;;;;;14.15;46.09;100002.91;10329095;28;20168;-74
2021/03/26 22:36:55;;;;;;;6.63;5.18;;;;;;;14.05;46.42;100002.16;10349678;28;20054;-73
2021/03/26 22:42:05;;;;;;;7.35;5.10;;;;;;;13.86;46.86;99995.09;10329754;28;20133;-73
2021/03/26 22:47:12;;;;;;;6.07;4.72;;;;;;;13.71;47.21;99994.78;10328685;28;20460;-75
2021/03/26 22:53:13;;;;;;;6.13;5.28;;;;;;;13.64;47.57;99988.34;10340289;28;20049;-75
2021/03/26 22:58:23;;;;;;;6.97;6.15;;;;;;;13.53;47.85;99977.88;10282193;28;20053;-73
2021/03/26 23:03:50;;;;;;;6.28;5.68;;;;;;;13.41;48.14;99975.38;10337614;28;20046;-72
2021/03/26 23:09:08;;;;;;;5.93;5.35;;;;;;;13.38;48.58;99967.66;10338519;28;20081;-73
2021/03/26 23:14:28;;;;;;;7.60;5.35;;;;;;;13.31;48.79;99955.84;10339353;28;20100;-74
2021/03/26 23:19:52;;;;;;;8.65;6.25;;;;;;;13.15;49.05;99960.97;10339134;28;20455;-75
2021/03/26 23:25:02;;;;;;;6.03;5.47;;;;;;;13.07;49.34;99933.16;10318807;28;20133;-73
2021/03/26 23:30:40;;;;;;;9.50;6.45;;;;;;;12.97;49.60;99932.38;10337931;28;20259;-73
2021/03/26 23:35:49;;;;;;;6.93;6.00;;;;;;;12.93;49.79;99925.66;10340328;28;20077;-73
2021/03/26 23:41:05;;;;;;;6.85;6.07;;;;;;;12.86;49.55;99929.88;10342747;28;20120;-73
2021/03/26 23:46:22;;;;;;;7.63;6.90;;;;;;;12.73;50.53;99941.75;10337534;28;20065;-73
2021/03/26 23:51:34;;;;;;;7.78;6.97;;;;;;;12.73;50.58;99935.56;10340773;28;20060;-72
2021/03/26 23:56:35;;;;;;;7.45;6.70;;;;;;;12.63;50.81;99935.56;10336418;28;20073;-73
